Time;durP1;ratioP1;P1;durP2;ratioP2;P2;SDS_P1;SDS_P2;PMS_P1;PMS_P2;Temp;Humidity;BMP_temperature;BMP_pressure;BME280_temperature;BME280_humidity;BME280_pressure;Samples;Min_cycle;Max_cycle;Signal;HPM_P1;HPM_P2
2022/07/28 00:00:10;;;;;;;4.72;3.20;;;;;;;17.65;79.37;96745.18;1682681;83;20975;-82
2022/07/28 00:02:37;;;;;;;4.72;3.00;;;;;;;17.60;79.38;96744.23;1687291;83;21062;-82
2022/07/28 00:05:04;;;;;;;6.15;2.90;;;;;;;17.56;79.37;96743.84;1684281;83;20948;-82
2022/07/28 00:07:29;;;;;;;5.00;2.77;;;;;;;17.56;79.51;96734.64;1688174;83;20983;-81
2022/07/28 00:09:55;;;;;;;5.75;3.00;;;;;;;17.52;79.51;96726.91;1682907;83;21378;-82
2022/07/28 00:12:21;;;;;;;4.05;2.83;;;;;;;17.53;79.48;96729.83;1662429;84;21026;-82
2022/07/28 00:14:47;;;;;;;5.20;2.72;;;;;;;17.50;79.54;96731.58;1684342;83;20971;-82
2022/07/28 00:17:12;;;;;;;4.72;3.15;;;;;;;17.50;79.43;96737.34;1684579;83;21022;-82
2022/07/28 00:19:38;;;;;;;5.62;2.75;;;;;;;17.48;79.33;96738.08;1682043;83;21020;-82
2022/07/28 00:22:05;;;;;;;4.25;2.67;;;;;;;17.45;79.43;96738.52;1686021;83;21019;-82
2022/07/28 00:24:33;;;;;;;5.37;2.87;;;;;;;17.42;79.51;96737.64;1687843;83;21121;-82
2022/07/28 00:27:00;;;;;;;5.08;2.77;;;;;;;17.37;79.41;96744.31;1686351;83;21062;-82
2022/07/28 00:29:25;;;;;;;4.87;2.30;;;;;;;17.33;79.56;96739.20;1677522;83;21061;-82
2022/07/28 00:31:51;;;;;;;4.28;3.02;;;;;;;17.31;79.47;96745.19;1643318;87;20940;-82
2022/07/28 00:34:17;;;;;;;3.33;2.37;;;;;;;17.28;79.68;96740.38;1606508;88;20978;-82
2022/07/28 00:36:42;;;;;;;5.78;2.77;;;;;;;17.26;79.73;96743.72;1626467;87;20999;-82
2022/07/28 00:39:08;;;;;;;3.27;2.58;;;;;;;17.26;79.05;96749.48;1601552;88;20982;-83
2022/07/28 00:41:35;;;;;;;5.00;3.12;;;;;;;17.24;79.42;96750.98;1633361;87;21094;-84
2022/07/28 00:44:01;;;;;;;3.60;2.20;;;;;;;17.22;79.46;96756.16;1631765;86;21412;-82
2022/07/28 00:46:27;;;;;;;4.12;2.40;;;;;;;17.18;78.64;96758.42;1640994;87;20991;-82
2022/07/28 00:48:53;;;;;;;3.67;2.10;;;;;;;17.11;77.45;96755.05;1600175;87;20963;-82
2022/07/28 00:51:21;;;;;;;4.97;2.65;;;;;;;17.08;77.75;96748.41;1671412;85;20926;-82
2022/07/28 00:53:47;;;;;;;4.78;2.17;;;;;;;17.06;77.04;96754.87;1664257;84;21301;-83
2022/07/28 00:56:13;;;;;;;3.58;1.90;;;;;;;17.03;76.91;96753.98;1659054;85;21448;-82
2022/07/28 00:58:39;;;;;;;3.20;1.95;;;;;;;17.01;76.52;96750.77;1663989;85;21024;-82
2022/07/28 01:01:07;;;;;;;2.62;1.85;;;;;;;16.99;76.28;96758.06;1664315;85;21005;-82
2022/07/28 01:03:35;;;;;;;5.90;2.27;;;;;;;16.95;75.83;96763.45;1674477;85;21025;-82
2022/07/28 01:06:29;;;;;;;3.85;1.90;;;;;;;16.90;75.43;96756.19;1667539;85;21019;-82
2022/07/28 01:09:31;;;;;;;3.12;2.27;;;;;;;16.83;75.44;96748.08;1660895;84;21013;-82
2022/07/28 01:12:14;;;;;;;3.35;2.10;;;;;;;16.79;75.31;96749.81;1668380;85;21045;-83
2022/07/28 01:14:51;;;;;;;4.05;1.50;;;;;;;16.75;75.60;96747.30;1667687;85;20983;-81
2022/07/28 01:17:37;;;;;;;3.62;1.80;;;;;;;16.73;75.13;96735.41;1667248;85;21363;-82
2022/07/28 01:20:14;;;;;;;3.02;1.70;;;;;;;16.71;75.32;96733.00;1665895;85;21613;-82
2022/07/28 01:23:01;;;;;;;3.75;2.20;;;;;;;16.69;75.31;96735.03;1661403;85;21064;-81
2022/07/28 01:25:42;;;;;;;3.00;2.17;;;;;;;16.65;75.28;96733.83;1641977;85;21165;-82
2022/07/28 01:29:03;;;;;;;4.25;1.90;;;;;;;16.64;75.53;96732.72;1667551;84;21066;-82
2022/07/28 01:31:39;;;;;;;3.30;1.70;;;;;;;16.51;75.59;96725.73;1667879;85;21013;-82
2022/07/28 01:34:08;;;;;;;3.47;1.57;;;;;;;16.33;75.57;96722.49;1660156;85;21007;-82
2022/07/28 01:36:59;;;;;;;4.45;1.77;;;;;;;16.31;75.80;96731.59;1665249;85;21021;-82
2022/07/28 01:39:28;;;;;;;4.22;1.75;;;;;;;16.31;75.49;96738.14;1662536;85;21011;-82
2022/07/28 01:41:54;;;;;;;4.35;1.87;;;;;;;16.30;75.73;96739.16;1662415;85;20994;-82
2022/07/28 01:44:22;;;;;;;4.15;1.65;;;;;;;16.30;76.25;96735.23;1641185;85;21321;-81
2022/07/28 01:46:48;;;;;;;3.27;1.80;;;;;;;16.29;76.57;96741.48;1662297;85;21075;-82
2022/07/28 01:49:17;;;;;;;3.42;1.70;;;;;;;16.26;76.98;96737.94;1661008;85;21456;-82
2022/07/28 01:51:43;;;;;;;4.25;1.65;;;;;;;16.25;76.83;96740.27;1636778;85;20996;-81
2022/07/28 01:54:08;;;;;;;3.25;1.60;;;;;;;16.25;76.93;96744.20;1657232;85;21048;-81
2022/07/28 01:56:34;;;;;;;4.30;2.10;;;;;;;16.29;77.21;96750.66;1664682;85;20995;-82
2022/07/28 01:59:05;;;;;;;2.60;1.87;;;;;;;16.34;76.81;96752.14;1664253;85;21058;-82
2022/07/28 02:01:35;;;;;;;4.17;1.80;;;;;;;16.37;77.15;96756.97;1661701;85;20991;-82
2022/07/28 02:04:03;;;;;;;3.50;2.02;;;;;;;16.35;76.81;96758.48;1658391;85;21043;-82
2022/07/28 02:06:32;;;;;;;3.17;1.60;;;;;;;16.33;77.00;96757.09;1660372;85;21096;-82
2022/07/28 02:08:59;;;;;;;3.35;2.00;;;;;;;16.30;77.38;96757.00;1662749;85;20985;-82
2022/07/28 02:11:40;;;;;;;3.80;2.02;;;;;;;16.26;77.36;96753.17;1663962;85;21162;-82
2022/07/28 02:14:14;;;;;;;4.78;1.77;;;;;;;16.25;77.59;96756.00;1630996;87;21424;-82
2022/07/28 02:16:44;;;;;;;3.90;1.60;;;;;;;16.13;77.70;96738.83;1628381;87;21374;-82
2022/07/28 02:19:10;;;;;;;4.03;2.08;;;;;;;16.25;77.66;96760.73;1606143;88;21019;-82
2022/07/28 02:21:36;;;;;;;3.40;1.92;;;;;;;16.24;77.41;96759.64;1660136;85;21017;-82
2022/07/28 02:24:01;;;;;;;3.42;1.85;;;;;;;16.22;77.32;96759.84;1665276;85;21085;-81
2022/07/28 02:26:34;;;;;;;2.55;1.90;;;;;;;16.21;77.73;96756.42;1661237;85;21085;-82
2022/07/28 02:29:02;;;;;;;3.72;1.77;;;;;;;16.20;77.63;96757.44;1668115;84;22078;-82
2022/07/28 02:31:32;;;;;;;3.20;2.33;;;;;;;16.19;77.95;96758.95;1664264;85;21646;-82
2022/07/28 02:34:03;;;;;;;4.83;1.98;;;;;;;16.19;77.85;96754.52;1663218;85;21008;-82
2022/07/28 02:36:36;;;;;;;3.72;1.95;;;;;;;16.19;77.59;96761.07;1658685;85;21094;-82
2022/07/28 02:39:06;;;;;;;3.70;1.80;;;;;;;16.20;77.86;96762.67;1664079;85;21003;-82
2022/07/28 02:41:34;;;;;;;5.22;2.37;;;;;;;16.21;77.79;96763.48;1667091;85;21042;-81
2022/07/28 02:44:03;;;;;;;5.03;2.47;;;;;;;16.20;77.64;96758.75;1634801;86;21515;-84
2022/07/28 02:46:33;;;;;;;4.17;2.12;;;;;;;16.20;77.84;96765.80;1661518;85;21067;-82
2022/07/28 02:49:09;;;;;;;4.53;2.08;;;;;;;16.19;77.57;96758.95;1638765;85;21366;-81
2022/07/28 02:51:35;;;;;;;4.40;2.60;;;;;;;16.18;77.62;96762.09;1663711;85;20999;-82
2022/07/28 02:54:01;;;;;;;4.75;2.02;;;;;;;16.17;77.18;96756.55;1665282;85;20919;-82
2022/07/28 02:56:28;;;;;;;6.37;2.37;;;;;;;16.17;77.17;96760.48;1662282;85;21553;-82
2022/07/28 02:58:53;;;;;;;4.17;2.42;;;;;;;16.12;77.45;96766.05;1657462;85;21072;-82
2022/07/28 03:01:19;;;;;;;4.55;2.12;;;;;;;16.08;77.67;96765.64;1659932;85;21022;-82
2022/07/28 03:03:45;;;;;;;3.67;1.98;;;;;;;16.06;76.89;96770.80;1670318;85;21521;-82
2022/07/28 03:06:11;;;;;;;5.67;1.50;;;;;;;16.06;76.80;96780.77;1661652;84;20968;-82
2022/07/28 03:08:37;;;;;;;3.42;1.62;;;;;;;16.09;76.40;96780.86;1668186;84;20977;-81
2022/07/28 03:11:10;;;;;;;3.77;1.60;;;;;;;16.12;75.69;96787.02;1665993;85;21080;-81
2022/07/28 03:13:36;;;;;;;2.55;1.55;;;;;;;16.13;75.42;96799.92;1667860;85;21025;-82
2022/07/28 03:16:03;;;;;;;2.92;1.52;;;;;;;16.12;75.10;96797.52;1663875;85;21385;-82
2022/07/28 03:18:29;;;;;;;4.37;1.80;;;;;;;16.09;74.87;96798.70;1666493;85;21381;-82
2022/07/28 03:20:55;;;;;;;3.72;1.57;;;;;;;16.07;75.56;96804.66;1625005;86;21086;-82
2022/07/28 03:23:25;;;;;;;4.17;1.62;;;;;;;16.04;75.81;96801.66;1625981;87;21002;-82
2022/07/28 03:25:51;;;;;;;3.62;1.55;;;;;;;16.00;75.80;96800.45;1601033;87;22146;-83
2022/07/28 03:28:19;;;;;;;3.02;1.72;;;;;;;15.97;75.67;96794.32;1623771;87;21057;-82
2022/07/28 03:30:56;;;;;;;3.37;1.37;;;;;;;15.97;75.58;96796.94;1650763;85;21743;-81
2022/07/28 03:33:22;;;;;;;2.92;1.50;;;;;;;15.97;75.44;96795.13;1653470;85;21195;-82
2022/07/28 03:35:50;;;;;;;3.15;1.42;;;;;;;15.94;75.67;96790.27;1651084;85;21086;-81
2022/07/28 03:38:25;;;;;;;6.10;1.60;;;;;;;15.94;75.40;96795.52;1650765;85;20990;-82
2022/07/28 03:40:53;;;;;;;2.40;1.32;;;;;;;15.91;75.54;96788.87;1650240;85;21066;-82
2022/07/28 03:43:20;;;;;;;2.37;1.57;;;;;;;15.89;75.44;96787.47;1650929;85;21137;-81
2022/07/28 03:45:46;;;;;;;5.78;1.60;;;;;;;15.86;75.61;96784.76;1651484;86;21085;-83
2022/07/28 03:48:13;;;;;;;2.77;1.40;;;;;;;15.85;75.83;96790.20;1650569;85;21002;-81
2022/07/28 03:50:39;;;;;;;2.62;1.22;;;;;;;15.84;76.20;96784.66;1650564;85;20982;-81
2022/07/28 03:53:14;;;;;;;3.60;1.50;;;;;;;15.83;76.25;96779.93;1651474;85;21027;-82
2022/07/28 03:55:49;;;;;;;4.58;2.20;;;;;;;15.84;75.82;96789.40;1647521;85;21025;-82
2022/07/28 03:58:11;;;;;;;2.52;1.57;;;;;;;15.83;75.76;96789.61;1661370;85;21357;-82
2022/07/28 04:00:39;;;;;;;2.98;1.40;;;;;;;15.85;76.02;96793.63;1684718;83;21438;-82
2022/07/28 04:03:05;;;;;;;3.62;1.57;;;;;;;15.85;76.06;96797.56;1684964;83;21337;-82
2022/07/28 04:05:31;;;;;;;2.50;1.47;;;;;;;15.85;76.33;96792.31;1684836;83;20911;-83
2022/07/28 04:07:57;;;;;;;3.77;1.00;;;;;;;15.87;76.35;96797.35;1681210;83;21097;-82
2022/07/28 04:10:23;;;;;;;1.90;0.75;;;;;;;15.87;76.41;96794.73;1658377;85;21057;-82
2022/07/28 04:12:54;;;;;;;2.83;1.30;;;;;;;15.90;76.44;96796.94;1683193;83;21042;-82
2022/07/28 04:15:20;;;;;;;6.97;2.15;;;;;;;15.91;76.23;96788.87;1688606;83;21011;-81
2022/07/28 04:17:47;;;;;;;2.52;1.22;;;;;;;15.95;76.27;96793.22;1683989;83;20994;-81
2022/07/28 04:20:13;;;;;;;3.12;1.10;;;;;;;16.01;76.47;96793.70;1678622;84;20999;-82
2022/07/28 04:22:38;;;;;;;2.95;1.52;;;;;;;16.06;76.32;96797.00;1687541;83;21021;-82
2022/07/28 04:25:05;;;;;;;3.40;1.22;;;;;;;16.08;76.82;96798.41;1682419;83;21053;-82
2022/07/28 04:27:36;;;;;;;2.55;1.10;;;;;;;16.11;76.99;96801.14;1684499;83;21033;-81
2022/07/28 04:30:11;;;;;;;2.92;1.20;;;;;;;16.14;76.84;96799.42;1685246;83;21421;-82
2022/07/28 04:32:39;;;;;;;3.52;1.27;;;;;;;16.17;76.77;96802.42;1701081;83;20998;-82
2022/07/28 04:35:09;;;;;;;4.70;1.40;;;;;;;16.20;76.36;96798.07;1699256;83;20977;-81
2022/07/28 04:37:35;;;;;;;3.42;2.08;;;;;;;16.24;75.61;96806.33;1697878;83;21035;-81
2022/07/28 04:40:01;;;;;;;3.58;1.75;;;;;;;16.26;75.83;96802.98;1668103;83;21473;-81
2022/07/28 04:42:27;;;;;;;2.77;1.52;;;;;;;16.27;75.89;96805.94;1699736;83;21006;-81
2022/07/28 04:44:53;;;;;;;2.95;1.52;;;;;;;16.28;75.71;96801.49;1696923;83;21377;-81
2022/07/28 04:47:18;;;;;;;3.58;1.45;;;;;;;16.29;76.28;96805.73;1693486;83;21109;-81
2022/07/28 04:49:44;;;;;;;2.27;1.62;;;;;;;16.31;76.16;96802.39;1665215;85;21033;-81
2022/07/28 04:52:11;;;;;;;4.78;2.00;;;;;;;16.34;75.77;96802.77;1699115;83;21042;-81
2022/07/28 04:54:39;;;;;;;3.40;1.52;;;;;;;16.38;75.48;96813.64;1664201;85;21005;-81
2022/07/28 04:57:04;;;;;;;5.40;2.12;;;;;;;16.40;75.67;96808.99;1637994;85;21150;-82
2022/07/28 04:59:34;;;;;;;4.65;1.60;;;;;;;16.42;76.11;96810.39;1643385;86;21074;-82
2022/07/28 05:01:58;;;;;;;3.08;1.90;;;;;;;16.47;75.96;96814.53;1648229;85;21086;-81
2022/07/28 05:04:24;;;;;;;4.97;1.55;;;;;;;16.49;75.57;96813.00;1700703;83;21334;-81
2022/07/28 05:06:50;;;;;;;3.33;1.80;;;;;;;16.51;75.49;96814.41;1697168;83;21070;-82
2022/07/28 05:09:15;;;;;;;2.98;1.70;;;;;;;16.55;75.99;96819.23;1700532;83;21085;-82
2022/07/28 05:11:41;;;;;;;2.75;1.20;;;;;;;16.58;76.04;96814.36;1703512;83;21364;-81
2022/07/28 05:14:07;;;;;;;3.65;1.60;;;;;;;16.62;76.48;96822.14;1701777;83;20991;-82
2022/07/28 05:16:34;;;;;;;3.00;1.30;;;;;;;16.64;76.81;96821.42;1700671;83;21528;-83
2022/07/28 05:19:00;;;;;;;4.40;1.75;;;;;;;16.65;76.13;96819.09;1700302;83;21029;-81
2022/07/28 05:21:25;;;;;;;5.00;2.58;;;;;;;16.65;76.34;96819.09;1700037;83;21022;-81
2022/07/28 05:23:51;;;;;;;5.17;1.55;;;;;;;16.69;76.46;96818.99;1698711;83;21051;-82
2022/07/28 05:26:22;;;;;;;4.53;1.75;;;;;;;16.74;76.32;96825.72;1697734;83;21425;-82
2022/07/28 05:28:51;;;;;;;3.47;1.95;;;;;;;16.77;76.53;96824.02;1700156;83;21117;-81
2022/07/28 05:31:18;;;;;;;5.95;2.52;;;;;;;16.76;76.25;96823.72;1663740;85;21001;-81
2022/07/28 05:33:44;;;;;;;5.03;2.40;;;;;;;16.77;75.58;96827.95;1685047;83;20954;-82
2022/07/28 05:36:10;;;;;;;3.60;2.10;;;;;;;16.80;76.02;96830.66;1684644;84;22335;-82
2022/07/28 05:38:36;;;;;;;4.97;2.42;;;;;;;16.83;75.47;96835.99;1682353;83;21043;-81
2022/07/28 05:41:01;;;;;;;4.15;2.10;;;;;;;16.90;75.43;96837.55;1686744;83;20990;-83
2022/07/28 05:43:30;;;;;;;5.87;2.47;;;;;;;16.97;75.68;96829.66;1687001;83;21050;-81
2022/07/28 05:45:56;;;;;;;6.45;2.30;;;;;;;16.97;75.53;96825.72;1681570;83;21066;-82
2022/07/28 05:48:22;;;;;;;6.60;2.27;;;;;;;17.02;75.51;96837.19;1682993;84;21536;-82
2022/07/28 05:50:50;;;;;;;6.53;2.10;;;;;;;17.03;74.86;96835.37;1680500;83;21030;-82
2022/07/28 05:53:16;;;;;;;3.92;2.17;;;;;;;17.03;74.69;96839.30;1677893;83;21030;-81
2022/07/28 05:55:42;;;;;;;4.87;2.33;;;;;;;17.02;74.59;96839.81;1686145;83;20991;-82
2022/07/28 05:58:08;;;;;;;4.95;1.80;;;;;;;16.99;74.44;96843.38;1684022;84;21105;-81
2022/07/28 06:00:34;;;;;;;4.37;2.17;;;;;;;17.01;74.49;96843.97;1685068;83;21018;-82
2022/07/28 06:03:03;;;;;;;4.58;2.12;;;;;;;17.01;74.29;96842.66;1681711;83;21368;-82
2022/07/28 06:05:30;;;;;;;5.42;2.33;;;;;;;17.02;74.78;96845.57;1683632;83;21030;-82
2022/07/28 06:07:56;;;;;;;4.50;2.37;;;;;;;17.01;74.59;96850.02;1686884;83;21035;-81
2022/07/28 06:10:24;;;;;;;5.87;2.50;;;;;;;17.01;74.58;96851.84;1687613;83;21114;-81
2022/07/28 06:12:55;;;;;;;8.25;2.58;;;;;;;16.95;73.29;96856.62;1652645;85;20960;-81
2022/07/28 06:15:24;;;;;;;5.72;2.52;;;;;;;16.94;74.10;96862.39;1657818;85;21100;-81
2022/07/28 06:17:54;;;;;;;6.12;2.42;;;;;;;17.01;74.84;96865.77;1664194;85;21035;-81
2022/07/28 06:20:23;;;;;;;4.17;2.15;;;;;;;17.08;74.63;96863.94;1655690;85;21039;-82
2022/07/28 06:22:51;;;;;;;6.75;2.45;;;;;;;17.10;74.96;96856.65;1681947;83;20990;-80
2022/07/28 06:25:20;;;;;;;4.12;2.42;;;;;;;17.17;75.67;96861.05;1692837;83;21058;-81
2022/07/28 06:27:48;;;;;;;4.87;2.17;;;;;;;17.21;74.78;96866.16;1684235;83;21023;-81
2022/07/28 06:30:15;;;;;;;3.98;2.30;;;;;;;17.27;74.71;96868.77;1688133;83;21067;-81
2022/07/28 06:32:42;;;;;;;4.22;3.02;;;;;;;17.35;75.13;96869.80;1682323;83;21003;-81
2022/07/28 06:35:08;;;;;;;5.10;2.33;;;;;;;17.35;73.05;96865.87;1690574;83;20976;-81
2022/07/28 06:37:34;;;;;;;5.22;2.17;;;;;;;17.39;74.26;96864.42;1656372;85;21378;-81
2022/07/28 06:40:00;;;;;;;5.20;2.50;;;;;;;17.52;74.87;96869.29;1661303;85;20974;-81
2022/07/28 06:42:25;;;;;;;6.83;2.50;;;;;;;17.53;73.74;96865.13;1658019;85;21045;-81
2022/07/28 06:44:51;;;;;;;5.12;2.60;;;;;;;17.60;74.50;96865.10;1650400;85;21029;-81
2022/07/28 06:47:18;;;;;;;3.92;2.27;;;;;;;17.69;73.68;96857.27;1652119;85;21357;-81
2022/07/28 06:49:44;;;;;;;6.45;2.45;;;;;;;17.78;74.57;96861.75;1648184;85;20990;-81
2022/07/28 06:52:09;;;;;;;5.15;2.35;;;;;;;17.81;72.16;96852.13;1657449;85;21357;-81
2022/07/28 06:54:36;;;;;;;4.42;2.20;;;;;;;17.78;72.84;96863.88;1654818;85;21038;-81
2022/07/28 06:57:02;;;;;;;5.67;2.70;;;;;;;17.85;73.54;96861.98;1655159;85;21013;-81
2022/07/28 06:59:29;;;;;;;7.12;3.37;;;;;;;17.95;74.27;96858.36;1655031;85;20991;-81
2022/07/28 07:02:00;;;;;;;4.50;2.70;;;;;;;18.04;73.18;96862.01;1658546;85;20950;-81
2022/07/28 07:04:22;;;;;;;6.78;2.47;;;;;;;18.06;72.59;96858.66;1657855;85;21026;-81
2022/07/28 07:06:48;;;;;;;4.12;2.17;;;;;;;18.08;72.95;96856.13;1705680;83;20972;-81
2022/07/28 07:09:14;;;;;;;5.92;2.50;;;;;;;18.13;72.37;96857.58;1690258;83;21132;-81
2022/07/28 07:11:40;;;;;;;5.22;2.58;;;;;;;18.17;73.40;96850.05;1694530;83;20966;-81
2022/07/28 07:14:05;;;;;;;6.92;2.65;;;;;;;18.22;72.53;96860.23;1695106;83;20998;-81
2022/07/28 07:16:33;;;;;;;5.58;2.20;;;;;;;18.21;71.94;96849.39;1694849;83;21601;-81
2022/07/28 07:18:59;;;;;;;4.25;2.17;;;;;;;18.32;72.40;96851.02;1698202;83;20998;-83
2022/07/28 07:21:25;;;;;;;3.37;2.22;;;;;;;18.40;72.10;96846.28;1694217;83;21447;-81
2022/07/28 07:23:51;;;;;;;5.00;2.05;;;;;;;18.46;72.35;96846.70;1694263;83;20976;-82
2022/07/28 07:26:16;;;;;;;3.62;1.98;;;;;;;18.49;71.38;96840.20;1697081;83;20950;-81
2022/07/28 07:28:42;;;;;;;3.33;1.80;;;;;;;18.52;70.47;96839.23;1705567;83;20986;-81
2022/07/28 07:31:10;;;;;;;3.60;1.90;;;;;;;18.60;70.31;96838.95;1702091;83;21007;-81
2022/07/28 07:33:36;;;;;;;4.85;1.92;;;;;;;18.70;71.16;96842.39;1707857;83;21034;-81
2022/07/28 07:36:02;;;;;;;4.45;2.02;;;;;;;18.74;70.74;96834.88;1707266;83;21404;-81
2022/07/28 07:38:28;;;;;;;6.47;2.70;;;;;;;18.78;69.51;96834.72;1699133;83;21147;-82
2022/07/28 07:40:54;;;;;;;3.65;1.55;;;;;;;18.79;69.40;96837.13;1701513;83;21038;-81
2022/07/28 07:43:19;;;;;;;6.05;2.25;;;;;;;18.85;68.36;96836.73;1704356;83;20986;-81
2022/07/28 07:45:45;;;;;;;3.83;2.92;;;;;;;18.85;68.36;96836.73;1702993;83;20981;-82
2022/07/28 07:48:11;;;;;;;4.45;2.30;;;;;;;18.89;68.83;96830.03;1698452;83;21397;-81
2022/07/28 07:50:37;;;;;;;4.47;2.50;;;;;;;18.90;68.67;96835.58;1701518;83;21070;-82
2022/07/28 07:53:03;;;;;;;4.17;2.25;;;;;;;18.92;69.31;96836.16;1702372;83;21504;-82
2022/07/28 07:55:29;;;;;;;3.45;1.82;;;;;;;18.99;69.26;96839.48;1703266;83;20993;-81
2022/07/28 07:57:57;;;;;;;4.25;2.00;;;;;;;18.99;69.26;96839.48;1711917;83;20998;-81
2022/07/28 08:00:23;;;;;;;5.58;2.25;;;;;;;19.04;68.52;96842.28;1704452;83;21010;-81
2022/07/28 08:02:48;;;;;;;5.03;2.12;;;;;;;19.08;68.76;96839.48;1703998;83;21046;-81
2022/07/28 08:05:16;;;;;;;4.47;1.72;;;;;;;19.13;68.17;96841.43;1698628;83;21437;-81
2022/07/28 08:07:41;;;;;;;6.45;2.37;;;;;;;19.17;66.59;96842.06;1699830;83;20998;-81
2022/07/28 08:10:08;;;;;;;5.10;1.85;;;;;;;19.22;68.43;96844.56;1698917;83;21473;-81
2022/07/28 08:12:33;;;;;;;5.78;2.45;;;;;;;19.29;68.06;96844.75;1703193;83;21014;-81
2022/07/28 08:15:00;;;;;;;3.12;1.77;;;;;;;19.34;68.97;96844.86;1702633;83;21074;-82
2022/07/28 08:17:26;;;;;;;4.05;1.95;;;;;;;19.40;67.76;96845.30;1704622;83;21023;-82
2022/07/28 08:19:53;;;;;;;4.05;1.70;;;;;;;19.49;66.22;96841.80;1702036;83;21010;-84
2022/07/28 08:22:26;;;;;;;4.42;1.90;;;;;;;19.56;68.24;96847.02;1702040;83;21392;-82
2022/07/28 08:24:51;;;;;;;4.45;1.92;;;;;;;19.66;67.32;96844.09;1701144;83;21033;-82
2022/07/28 08:27:17;;;;;;;5.90;2.00;;;;;;;19.67;64.41;96838.30;1704359;83;20971;-82
2022/07/28 08:29:43;;;;;;;2.87;1.40;;;;;;;19.71;66.43;96841.59;1707664;83;20998;-82
2022/07/28 08:32:09;;;;;;;4.75;1.80;;;;;;;19.82;64.87;96837.34;1692639;83;21009;-81
2022/07/28 08:34:35;;;;;;;4.72;1.87;;;;;;;19.90;63.02;96842.80;1685890;83;20971;-82
2022/07/28 08:37:02;;;;;;;5.03;2.05;;;;;;;20.04;64.96;96837.59;1694137;83;21029;-82
2022/07/28 08:39:30;;;;;;;4.33;1.80;;;;;;;20.19;65.34;96836.61;1693586;83;21437;-82
2022/07/28 08:42:10;;;;;;;4.33;2.12;;;;;;;20.29;62.30;96826.25;1688272;83;20986;-83
2022/07/28 08:44:56;;;;;;;3.95;2.20;;;;;;;20.39;64.59;96833.59;1689432;83;21006;-83
2022/07/28 08:47:21;;;;;;;3.77;2.12;;;;;;;20.51;62.57;96838.88;1682283;83;21097;-82
2022/07/28 08:49:48;;;;;;;3.83;2.00;;;;;;;20.62;62.20;96840.67;1693041;83;21365;-82
2022/07/28 08:52:13;;;;;;;3.95;2.33;;;;;;;20.72;63.58;96831.64;1692730;83;21002;-82
2022/07/28 08:54:45;;;;;;;4.42;2.45;;;;;;;20.86;62.96;96835.61;1701128;83;20972;-81
2022/07/28 08:57:21;;;;;;;4.55;2.40;;;;;;;20.93;62.85;96844.70;1656030;84;21082;-82
2022/07/28 08:59:48;;;;;;;4.08;1.92;;;;;;;20.97;61.74;96841.87;1684026;84;21869;-82
2022/07/28 09:02:14;;;;;;;5.58;2.05;;;;;;;21.05;63.36;96835.42;1684092;84;20979;-81
2022/07/28 09:04:39;;;;;;;4.33;2.45;;;;;;;21.13;63.17;96838.47;1658127;85;21070;-82
2022/07/28 09:07:05;;;;;;;4.15;2.47;;;;;;;21.24;62.52;96838.13;1651848;85;21051;-81
2022/07/28 09:09:31;;;;;;;5.33;2.17;;;;;;;21.27;62.80;96841.65;1653499;86;21084;-81
2022/07/28 09:12:04;;;;;;;5.17;2.20;;;;;;;21.31;62.54;96838.80;1652790;86;21043;-83
2022/07/28 09:14:31;;;;;;;4.28;2.10;;;;;;;21.40;62.64;96841.35;1620064;87;21010;-82
2022/07/28 09:17:00;;;;;;;5.03;2.90;;;;;;;21.46;62.43;96843.03;1641441;85;21068;-82
2022/07/28 09:19:27;;;;;;;8.25;3.08;;;;;;;21.53;61.55;96838.41;1640155;86;21022;-82
2022/07/28 09:21:56;;;;;;;3.80;1.92;;;;;;;21.49;61.37;96837.28;1632894;87;21066;-81
2022/07/28 09:24:40;;;;;;;2.85;1.80;;;;;;;21.51;61.79;96838.36;1623148;87;21134;-79
2022/07/28 09:27:09;;;;;;;5.60;2.40;;;;;;;21.54;60.38;96834.72;1683152;84;21042;-80
2022/07/28 09:29:36;;;;;;;5.65;2.85;;;;;;;21.59;61.10;96836.63;1684306;84;21060;-80
2022/07/28 09:32:05;;;;;;;3.80;2.25;;;;;;;21.63;60.99;96832.45;1659303;83;21002;-79
2022/07/28 09:34:46;;;;;;;5.65;2.08;;;;;;;21.64;59.46;96838.05;1668087;85;20978;-79
2022/07/28 09:37:26;;;;;;;4.80;2.58;;;;;;;21.56;59.69;96833.95;1665203;85;21062;-78
2022/07/28 09:39:57;;;;;;;3.75;1.98;;;;;;;21.57;59.60;96832.91;1625280;87;22389;-79
2022/07/28 09:42:22;;;;;;;3.30;2.35;;;;;;;21.67;60.42;96834.12;1631101;86;21027;-78
2022/07/28 09:45:04;;;;;;;2.90;1.80;;;;;;;21.61;58.35;96839.83;1649910;85;20986;-79
2022/07/28 09:47:31;;;;;;;4.75;1.82;;;;;;;21.67;60.08;96837.57;1631611;87;21416;-79
2022/07/28 09:49:57;;;;;;;3.55;2.25;;;;;;;21.82;59.67;96835.16;1657862;85;21010;-78
2022/07/28 09:52:35;;;;;;;4.22;2.15;;;;;;;21.90;59.69;96841.88;1662720;85;21326;-79
2022/07/28 09:55:08;;;;;;;5.15;2.15;;;;;;;21.98;59.83;96839.36;1659685;85;21047;-78
2022/07/28 09:57:36;;;;;;;5.67;2.27;;;;;;;22.05;58.83;96836.84;1651535;85;21038;-78
2022/07/28 10:00:05;;;;;;;5.12;2.25;;;;;;;22.02;58.68;96838.62;1654201;85;21292;-80
2022/07/28 10:02:31;;;;;;;4.35;2.08;;;;;;;22.08;59.29;96828.92;1649164;85;21427;-80
2022/07/28 10:05:01;;;;;;;3.67;2.20;;;;;;;22.14;58.67;96832.74;1656084;85;21045;-78
2022/07/28 10:07:28;;;;;;;3.90;2.27;;;;;;;22.18;58.89;96828.28;1665634;85;20990;-79
2022/07/28 10:10:06;;;;;;;4.33;2.67;;;;;;;22.26;58.38;96830.48;1631200;87;21169;-79
2022/07/28 10:12:36;;;;;;;6.75;2.55;;;;;;;22.24;58.71;96833.91;1631522;87;21080;-79
2022/07/28 10:17:59;;;;;;;4.53;2.40;;;;;;;22.31;57.09;96824.76;1652817;85;21006;-80
2022/07/28 10:20:26;;;;;;;3.60;2.20;;;;;;;22.29;58.15;96826.85;1655218;85;20940;-80
2022/07/28 10:22:54;;;;;;;4.35;2.45;;;;;;;22.05;57.69;96820.95;1655064;85;20997;-78
2022/07/28 10:25:20;;;;;;;4.15;2.83;;;;;;;21.99;59.52;96823.23;1649691;85;20945;-78
2022/07/28 10:27:47;;;;;;;5.15;2.67;;;;;;;22.02;58.78;96825.91;1663386;85;21025;-80
2022/07/28 10:30:13;;;;;;;4.55;2.75;;;;;;;22.15;58.73;96829.05;1632422;86;21061;-80
2022/07/28 10:32:44;;;;;;;4.25;3.15;;;;;;;22.31;57.82;96819.98;1649138;85;21410;-81
2022/07/28 10:35:13;;;;;;;4.17;3.13;;;;;;;22.36;58.09;96820.84;1643807;85;21426;-78
2022/07/28 10:37:49;;;;;;;3.77;3.10;;;;;;;22.32;58.09;96817.62;1657255;85;20971;-79
2022/07/28 10:40:14;;;;;;;3.92;2.60;;;;;;;22.38;58.18;96814.77;1653464;85;21046;-79
2022/07/28 10:42:40;;;;;;;3.90;2.67;;;;;;;22.33;57.49;96813.92;1659151;85;21364;-78
2022/07/28 10:45:09;;;;;;;3.75;3.08;;;;;;;22.37;58.30;96811.05;1655131;85;21357;-79
2022/07/28 10:47:35;;;;;;;5.22;3.30;;;;;;;22.48;58.62;96812.79;1650400;85;21106;-80
2022/07/28 10:50:01;;;;;;;5.72;3.08;;;;;;;22.55;56.88;96812.06;1656405;85;21057;-78
2022/07/28 10:52:27;;;;;;;4.72;3.22;;;;;;;22.64;56.53;96810.59;1651589;85;20950;-78
2022/07/28 10:55:10;;;;;;;3.95;3.30;;;;;;;22.66;57.52;96813.00;1655093;85;20971;-79
2022/07/28 10:57:38;;;;;;;7.28;3.42;;;;;;;22.63;57.68;96803.70;1659701;85;21050;-78
2022/07/28 11:00:16;;;;;;;4.60;3.05;;;;;;;22.73;57.39;96805.12;1653273;85;21005;-79
2022/07/28 11:02:55;;;;;;;3.83;2.83;;;;;;;22.77;56.57;96808.06;1644013;85;21054;-79
2022/07/28 11:05:35;;;;;;;5.55;3.90;;;;;;;22.64;57.84;96807.15;1646109;85;21361;-80
2022/07/28 11:08:06;;;;;;;5.42;3.42;;;;;;;22.68;56.73;96806.39;1650030;85;21046;-79
2022/07/28 11:10:44;;;;;;;4.60;2.80;;;;;;;22.81;56.81;96805.74;1661168;85;21098;-79
2022/07/28 11:13:31;;;;;;;4.33;3.60;;;;;;;22.88;57.00;96802.39;1654567;85;21214;-79
2022/07/28 11:16:17;;;;;;;5.15;3.42;;;;;;;22.77;58.10;96810.72;1625312;87;20978;-81
2022/07/28 11:19:05;;;;;;;5.67;3.55;;;;;;;22.58;55.98;96798.33;1640694;85;21039;-80
2022/07/28 11:21:32;;;;;;;4.60;3.22;;;;;;;22.28;55.86;96797.95;1652010;85;21017;-79
2022/07/28 11:23:58;;;;;;;3.60;2.67;;;;;;;22.25;56.50;96799.25;1655448;85;21051;-81
2022/07/28 11:26:36;;;;;;;5.55;2.72;;;;;;;22.34;57.24;96794.34;1655248;85;21051;-79
2022/07/28 11:29:08;;;;;;;6.30;2.92;;;;;;;22.38;57.33;96796.25;1659462;85;20974;-80
2022/07/28 11:31:50;;;;;;;3.22;2.65;;;;;;;22.27;58.87;96791.86;1665499;83;21050;-80
2022/07/28 11:34:19;;;;;;;3.37;2.70;;;;;;;22.21;57.67;96786.76;1684485;84;20975;-78
2022/07/28 11:37:01;;;;;;;3.15;2.85;;;;;;;22.44;58.57;96790.48;1683848;83;21031;-79
2022/07/28 11:39:33;;;;;;;3.62;2.90;;;;;;;22.67;57.73;96788.11;1627038;87;21046;-79
2022/07/28 11:41:59;;;;;;;4.12;2.87;;;;;;;22.88;58.98;96790.47;1638441;86;21055;-81
2022/07/28 11:44:30;;;;;;;4.15;3.27;;;;;;;23.04;55.38;96786.92;1627106;86;21055;-80